createdAt,value
2019-02-05T00:01:36.912Z,3.37
2019-02-05T00:04:09.047Z,3.34
2019-02-05T00:06:41.056Z,3.44
2019-02-05T00:09:14.049Z,3.39
2019-02-05T00:11:46.326Z,3.33
2019-02-05T00:14:18.510Z,3.38
2019-02-05T00:16:50.643Z,3.38
2019-02-05T00:19:23.339Z,3.30
2019-02-05T00:21:55.102Z,3.29
2019-02-05T00:24:26.815Z,3.40
2019-02-05T00:26:59.323Z,3.27
2019-02-05T00:29:30.628Z,3.19
2019-02-05T00:32:02.662Z,3.27
2019-02-05T00:34:34.889Z,3.24
2019-02-05T00:37:06.971Z,3.15
2019-02-05T00:39:39.032Z,3.16
2019-02-05T00:42:11.495Z,3.18
2019-02-05T00:44:43.587Z,3.19
2019-02-05T00:47:15.425Z,3.17
2019-02-05T00:49:47.108Z,3.22
2019-02-05T00:52:19.440Z,3.21
2019-02-05T00:54:51.732Z,3.21
2019-02-05T00:57:23.085Z,3.17
2019-02-05T00:59:55.257Z,3.23
2019-02-05T01:02:27.601Z,3.22
2019-02-05T01:05:00.508Z,3.27
2019-02-05T01:07:32.033Z,3.34
2019-02-05T01:10:03.871Z,3.29
2019-02-05T01:12:36.478Z,3.38
2019-02-05T01:15:10.528Z,3.34
2019-02-05T01:17:42.680Z,3.37
2019-02-05T01:20:16.790Z,3.35
2019-02-05T01:22:48.922Z,3.36
2019-02-05T01:25:20.889Z,3.32
2019-02-05T01:27:52.606Z,3.31
2019-02-05T01:30:26.800Z,3.42
2019-02-05T01:32:58.968Z,3.46
2019-02-05T01:35:31.652Z,3.36
2019-02-05T01:38:03.365Z,3.45
2019-02-05T01:40:34.774Z,3.43
2019-02-05T01:43:07.699Z,3.40
2019-02-05T01:45:40.378Z,3.48
2019-02-05T01:48:13.491Z,3.47
2019-02-05T01:50:45.191Z,3.52
2019-02-05T01:53:16.894Z,3.54
2019-02-05T01:55:48.229Z,3.45
2019-02-05T01:58:19.857Z,3.44
2019-02-05T02:00:52.033Z,3.44
2019-02-05T02:03:24.102Z,3.57
2019-02-05T02:05:57.355Z,3.54
2019-02-05T02:08:29.401Z,3.58
2019-02-05T02:11:00.889Z,3.52
2019-02-05T02:13:32.290Z,3.55
2019-02-05T02:16:04.959Z,3.66
2019-02-05T02:18:36.703Z,3.63
2019-02-05T02:21:08.926Z,3.64
2019-02-05T02:23:40.643Z,3.64
2019-02-05T02:26:12.052Z,3.62
2019-02-05T02:28:44.715Z,3.63
2019-02-05T02:31:16.096Z,3.61
2019-02-05T02:33:47.418Z,3.67
2019-02-05T02:36:19.821Z,3.71
2019-02-05T02:38:51.193Z,3.66
2019-02-05T02:41:23.297Z,3.70
2019-02-05T02:43:55.699Z,3.78
2019-02-05T02:46:27.571Z,3.82
2019-02-05T02:48:58.957Z,3.79
2019-02-05T02:51:31.182Z,3.86
2019-02-05T02:54:03.470Z,3.89
2019-02-05T02:56:34.848Z,3.86
2019-02-05T02:59:06.936Z,3.86
2019-02-05T03:01:38.760Z,3.91
2019-02-05T03:04:10.531Z,3.97
2019-02-05T03:06:42.552Z,3.98
2019-02-05T03:09:13.960Z,3.97
2019-02-05T03:11:45.822Z,4.02
2019-02-05T03:14:17.620Z,3.94
2019-02-05T03:16:49.399Z,4.02
2019-02-05T03:19:20.779Z,3.96
2019-02-05T03:21:53.018Z,3.96
2019-02-05T03:24:25.001Z,3.99
2019-02-05T03:26:57.179Z,4.02
2019-02-05T03:29:32.043Z,4.08
2019-02-05T03:32:03.301Z,3.96
2019-02-05T03:34:35.487Z,3.99
2019-02-05T03:37:07.742Z,4.01
2019-02-05T03:39:40.978Z,4.04
2019-02-05T03:42:12.175Z,4.09
2019-02-05T03:44:43.743Z,4.02
2019-02-05T03:47:16.570Z,4.07
2019-02-05T03:49:49.465Z,4.07
2019-02-05T03:52:35.229Z,4.08
2019-02-05T03:55:40.186Z,4.09
2019-02-05T03:58:45.936Z,4.16
2019-02-05T04:02:00.836Z,4.08
2019-02-05T04:05:09.374Z,4.04
2019-02-05T04:08:24.938Z,4.08
2019-02-05T04:11:29.359Z,4.21
2019-02-05T04:14:31.049Z,4.12
2019-02-05T04:17:26.604Z,4.18
2019-02-05T04:20:56.947Z,4.14
2019-02-05T04:23:59.759Z,4.09
2019-02-05T04:27:26.905Z,4.19
2019-02-05T04:30:32.573Z,4.24
2019-02-05T04:33:53.465Z,4.35
2019-02-05T04:37:03.388Z,4.31
2019-02-05T04:40:21.064Z,4.26
2019-02-05T04:43:09.576Z,4.38
2019-02-05T04:46:28.361Z,4.39
2019-02-05T04:49:39.607Z,4.39
2019-02-05T04:52:43.718Z,4.39
2019-02-05T04:55:50.130Z,4.42
2019-02-05T04:59:00.557Z,4.31
2019-02-05T05:02:15.642Z,4.19
2019-02-05T05:05:40.892Z,4.24
2019-02-05T05:08:39.130Z,4.31
2019-02-05T05:11:10.323Z,4.36
2019-02-05T05:13:41.553Z,4.32
2019-02-05T05:16:12.776Z,4.31
2019-02-05T05:18:44.046Z,4.51
2019-02-05T05:21:15.295Z,4.42
2019-02-05T05:23:48.319Z,4.44
2019-02-05T05:26:19.900Z,4.29
2019-02-05T05:28:51.694Z,4.24
2019-02-05T05:31:23.791Z,4.17
2019-02-05T05:33:55.127Z,4.09
2019-02-05T05:36:26.725Z,4.17
2019-02-05T05:38:58.958Z,4.13
2019-02-05T05:41:30.197Z,4.22
2019-02-05T05:44:01.449Z,4.16
2019-02-05T05:46:33.117Z,4.10
2019-02-05T05:49:04.864Z,4.11
2019-02-05T05:51:36.400Z,4.07
2019-02-05T05:54:08.413Z,4.05
2019-02-05T05:56:39.887Z,4.17
2019-02-05T05:59:12.027Z,4.16
2019-02-05T06:01:43.331Z,4.17
2019-02-05T06:04:15.087Z,4.20
2019-02-05T06:06:46.855Z,4.20
2019-02-05T06:09:18.056Z,4.18
2019-02-05T06:11:50.969Z,4.20
2019-02-05T06:14:22.790Z,4.23
2019-02-05T06:16:54.352Z,4.27
2019-02-05T06:19:26.171Z,4.31
2019-02-05T06:21:57.780Z,4.33
2019-02-05T06:24:29.648Z,4.36
2019-02-05T06:27:01.816Z,4.33
2019-02-05T06:29:33.012Z,4.41
2019-02-05T06:32:04.349Z,4.36
2019-02-05T06:34:35.957Z,4.41
2019-02-05T06:37:08.003Z,4.55
2019-02-05T06:39:39.550Z,4.43
2019-02-05T06:42:10.695Z,4.42
2019-02-05T06:44:42.154Z,4.41
2019-02-05T06:47:13.648Z,4.43
2019-02-05T06:49:45.503Z,4.48
2019-02-05T06:52:17.033Z,4.54
2019-02-05T06:54:48.309Z,4.44
2019-02-05T06:57:28.952Z,4.45
2019-02-05T07:00:00.191Z,4.46
2019-02-05T07:02:31.464Z,4.56
2019-02-05T07:05:02.677Z,4.59
2019-02-05T07:07:34.361Z,4.50
2019-02-05T07:10:08.198Z,4.58
2019-02-05T07:12:39.955Z,4.67
2019-02-05T07:15:11.913Z,4.68
2019-02-05T07:17:49.811Z,4.64
2019-02-05T07:20:17.014Z,4.68
2019-02-05T07:22:48.570Z,4.67
2019-02-05T07:25:20.734Z,4.77
2019-02-05T07:27:52.821Z,4.80
2019-02-05T07:30:29.854Z,4.66
2019-02-05T07:33:01.792Z,4.67
2019-02-05T07:35:33.051Z,4.59
2019-02-05T07:38:05.563Z,4.59
2019-02-05T07:40:36.896Z,4.68
2019-02-05T07:43:08.786Z,4.75
2019-02-05T07:45:40.403Z,4.84
2019-02-05T07:48:12.777Z,4.83
2019-02-05T07:51:03.887Z,4.88
2019-02-05T07:53:35.694Z,4.74
2019-02-05T07:56:07.934Z,4.70
2019-02-05T07:58:39.464Z,4.79
2019-02-05T08:01:11.442Z,4.71
2019-02-05T08:03:42.883Z,4.72
2019-02-05T08:06:14.947Z,4.61
2019-02-05T08:08:46.992Z,4.70
2019-02-05T08:11:18.440Z,4.73
2019-02-05T08:13:49.819Z,4.71
2019-02-05T08:16:22.184Z,4.80
2019-02-05T08:18:54.488Z,4.69
2019-02-05T08:21:27.020Z,4.78
2019-02-05T08:23:58.256Z,4.83
2019-02-05T08:26:30.103Z,4.81
2019-02-05T08:29:01.717Z,4.83
2019-02-05T08:31:34.587Z,4.87
2019-02-05T08:34:06.831Z,4.86
2019-02-05T08:36:39.952Z,4.85
2019-02-05T08:39:12.365Z,5.02
2019-02-05T08:41:44.799Z,5.03
2019-02-05T08:44:16.761Z,4.99
2019-02-05T08:46:48.399Z,4.91
2019-02-05T08:49:20.570Z,4.92
2019-02-05T08:51:51.804Z,5.02
2019-02-05T08:54:23.999Z,5.06
2019-02-05T08:56:56.310Z,5.05
2019-02-05T08:59:28.388Z,5.21
2019-02-05T09:02:00.052Z,5.23
2019-02-05T09:04:33.655Z,5.45
2019-02-05T09:07:05.944Z,5.28
2019-02-05T09:09:37.174Z,5.23
2019-02-05T09:12:08.619Z,5.18
2019-02-05T09:14:40.495Z,5.18
2019-02-05T09:17:11.791Z,5.23
2019-02-05T09:19:43.807Z,5.27
2019-02-05T09:22:15.972Z,5.23
2019-02-05T09:24:48.238Z,5.37
2019-02-05T09:27:20.833Z,5.39
2019-02-05T09:29:52.473Z,5.41
2019-02-05T09:32:24.463Z,5.30
2019-02-05T09:34:56.293Z,5.23
2019-02-05T09:37:28.269Z,5.29
2019-02-05T09:40:00.320Z,5.25
2019-02-05T09:42:33.834Z,5.32
2019-02-05T09:45:06.948Z,5.49
2019-02-05T09:47:38.574Z,5.51
2019-02-05T09:50:12.921Z,5.45
2019-02-05T09:52:44.852Z,5.55
2019-02-05T09:55:16.902Z,5.50
2019-02-05T09:57:49.166Z,5.46
2019-02-05T10:00:23.193Z,5.56
2019-02-05T10:02:55.528Z,5.55
2019-02-05T10:05:28.392Z,5.66
2019-02-05T10:08:01.557Z,5.63
2019-02-05T10:10:33.540Z,5.60
2019-02-05T10:13:06.775Z,5.80
2019-02-05T10:15:39.481Z,5.57
2019-02-05T10:18:12.404Z,5.71
2019-02-05T10:21:09.758Z,5.52
2019-02-05T10:23:41.595Z,5.61
2019-02-05T10:26:13.155Z,5.62
2019-02-05T10:28:46.501Z,5.75
2019-02-05T10:31:18.761Z,5.74
2019-02-05T10:33:58.224Z,5.86
2019-02-05T10:36:31.323Z,5.94
2019-02-05T10:39:04.875Z,5.95
2019-02-05T10:45:26.133Z,5.85
2019-02-05T10:47:58.634Z,5.89
2019-02-05T10:50:30.166Z,5.77
2019-02-05T10:53:02.119Z,5.88
2019-02-05T10:55:35.821Z,5.90
2019-02-05T10:58:15.141Z,6.01
2019-02-05T11:00:46.999Z,5.95
2019-02-05T11:04:01.015Z,6.03
2019-02-05T11:06:33.480Z,6.13
2019-02-05T11:09:19.070Z,6.03
2019-02-05T11:11:54.019Z,6.00
2019-02-05T11:14:25.845Z,5.92
2019-02-05T11:16:57.203Z,6.12
2019-02-05T11:19:29.320Z,6.04
2019-02-05T11:22:02.319Z,6.09
2019-02-05T11:24:45.040Z,6.09
2019-02-05T11:27:18.505Z,6.11
2019-02-05T11:29:51.784Z,6.11
2019-02-05T11:32:52.752Z,6.09
2019-02-05T11:35:18.792Z,6.17
2019-02-05T11:37:50.492Z,6.14
2019-02-05T11:40:25.679Z,5.99
2019-02-05T11:42:57.428Z,6.09
2019-02-05T11:45:30.795Z,6.16
2019-02-05T11:48:06.093Z,6.09
2019-02-05T11:50:38.164Z,6.12
2019-02-05T11:53:09.997Z,5.98
2019-02-05T11:55:41.497Z,6.18
2019-02-05T11:58:14.821Z,6.25
2019-02-05T12:00:52.206Z,6.00
2019-02-05T12:03:23.651Z,6.18
2019-02-05T12:05:55.732Z,6.33
2019-02-05T12:08:28.497Z,6.32
2019-02-05T12:10:59.853Z,6.41
2019-02-05T12:13:31.561Z,6.35
2019-02-05T12:16:04.550Z,6.32
2019-02-05T12:18:36.229Z,6.38
2019-02-05T12:21:08.854Z,6.40
2019-02-05T12:23:40.503Z,6.39
2019-02-05T12:26:12.085Z,6.42
2019-02-05T12:28:44.124Z,6.46
2019-02-05T12:31:15.896Z,6.44
2019-02-05T12:33:48.144Z,6.42
2019-02-05T12:36:20.610Z,6.34
2019-02-05T12:38:53.628Z,6.39
2019-02-05T12:41:24.996Z,6.31
2019-02-05T12:43:59.668Z,6.29
2019-02-05T12:46:31.324Z,6.35
2019-02-05T12:49:02.992Z,6.28
2019-02-05T12:51:34.964Z,6.44
2019-02-05T12:54:07.034Z,6.48
2019-02-05T12:56:55.356Z,6.48
2019-02-05T12:59:29.550Z,6.54
2019-02-05T13:02:01.521Z,6.42
2019-02-05T13:04:33.904Z,6.59
2019-02-05T13:07:06.124Z,6.48
2019-02-05T13:09:42.696Z,6.64
2019-02-05T13:12:14.263Z,6.45
2019-02-05T13:14:48.474Z,6.55
2019-02-05T13:17:21.800Z,6.41
2019-02-05T13:19:53.901Z,6.44
2019-02-05T13:22:25.461Z,6.41
2019-02-05T13:24:57.266Z,6.48
2019-02-05T13:27:29.278Z,6.60
2019-02-05T13:30:04.163Z,6.35
2019-02-05T13:32:38.811Z,6.35
2019-02-05T13:35:11.152Z,6.34
2019-02-05T13:37:42.685Z,6.38
2019-02-05T13:40:19.813Z,6.38
2019-02-05T13:42:52.621Z,6.27
2019-02-05T13:45:29.448Z,6.40
2019-02-05T13:48:00.937Z,6.59
2019-02-05T13:50:34.894Z,6.58
2019-02-05T13:53:08.769Z,6.59
2019-02-05T13:56:01.726Z,6.54
2019-02-05T13:58:32.406Z,6.68
2019-02-05T14:01:04.496Z,6.84
2019-02-05T14:03:36.627Z,6.83
2019-02-05T14:06:08.815Z,6.85
2019-02-05T14:08:41.527Z,6.91
2019-02-05T14:11:13.770Z,6.81
2019-02-05T14:13:45.363Z,6.82
2019-02-05T14:16:16.658Z,6.86
2019-02-05T14:18:55.304Z,6.74
2019-02-05T14:21:22.370Z,6.79
2019-02-05T14:23:54.410Z,6.65
2019-02-05T14:26:27.448Z,6.61
2019-02-05T14:28:59.211Z,6.69
2019-02-05T14:31:33.136Z,6.60
2019-02-05T14:34:05.349Z,6.63
2019-02-05T14:36:37.663Z,6.64
2019-02-05T14:39:11.913Z,6.65
2019-02-05T14:41:47.699Z,6.70
2019-02-05T14:44:20.997Z,6.65
2019-02-05T14:46:54.535Z,6.55
2019-02-05T14:49:25.850Z,6.51
2019-02-05T14:52:00.335Z,6.66
2019-02-05T14:54:32.531Z,6.67
2019-02-05T14:57:06.317Z,6.53
2019-02-05T15:00:05.105Z,6.63
2019-02-05T15:02:40.036Z,6.70
2019-02-05T15:05:12.036Z,6.54
2019-02-05T15:07:53.454Z,6.63
2019-02-05T15:10:25.029Z,6.53
2019-02-05T15:13:00.277Z,6.60
2019-02-05T15:15:33.030Z,6.75
2019-02-05T15:18:05.639Z,6.57
2019-02-05T15:20:39.710Z,6.60
2019-02-05T15:23:13.268Z,6.53
2019-02-05T15:25:45.000Z,6.44
2019-02-05T15:28:16.851Z,6.30
2019-02-05T15:30:55.333Z,6.36
2019-02-05T15:33:48.424Z,6.38
2019-02-05T15:36:25.665Z,6.23
2019-02-05T15:38:58.446Z,6.40
2019-02-05T15:41:30.448Z,6.31
2019-02-05T15:44:03.424Z,6.37
2019-02-05T15:46:35.299Z,6.32
2019-02-05T15:49:08.346Z,6.21
2019-02-05T15:51:41.752Z,6.28
2019-02-05T15:54:35.875Z,6.19
2019-02-05T15:57:11.690Z,6.27
2019-02-05T15:59:47.011Z,6.26
2019-02-05T16:02:20.158Z,6.22
2019-02-05T16:04:55.205Z,6.21
2019-02-05T16:07:29.145Z,6.23
2019-02-05T16:10:18.158Z,5.96
2019-02-05T16:12:51.690Z,6.01
2019-02-05T16:15:25.748Z,5.94
2019-02-05T16:17:57.073Z,6.05
2019-02-05T16:20:28.809Z,6.09
2019-02-05T16:23:05.276Z,6.03
2019-02-05T16:25:58.021Z,6.16
2019-02-05T16:28:30.643Z,6.08
2019-02-05T16:31:06.494Z,6.07
2019-02-05T16:33:39.483Z,6.05
2019-02-05T16:36:12.305Z,6.00
2019-02-05T16:38:47.874Z,5.98
2019-02-05T16:41:31.502Z,6.03
2019-02-05T16:44:13.985Z,6.14
2019-02-05T16:46:46.014Z,6.27
2019-02-05T16:49:22.482Z,6.27
2019-02-05T16:52:10.108Z,6.05
2019-02-05T16:55:22.137Z,6.01
2019-02-05T17:00:47.315Z,6.15
2019-02-05T17:03:18.534Z,6.13
2019-02-05T17:05:56.082Z,5.97
2019-02-05T17:08:29.760Z,6.03
2019-02-05T17:11:01.032Z,5.94
2019-02-05T17:13:32.859Z,5.84
2019-02-05T17:16:06.284Z,5.75
2019-02-05T17:18:37.985Z,5.94
2019-02-05T17:21:11.100Z,5.90
2019-02-05T17:23:44.553Z,5.97
2019-02-05T17:26:16.104Z,6.02
2019-02-05T17:28:47.945Z,5.88
2019-02-05T17:31:25.991Z,5.79
2019-02-05T17:34:00.627Z,5.73
2019-02-05T17:36:33.060Z,5.80
2019-02-05T17:39:08.132Z,5.82
2019-02-05T17:41:40.407Z,5.67
2019-02-05T17:44:18.819Z,5.76
2019-02-05T17:46:52.505Z,5.64
2019-02-05T17:49:24.431Z,5.76
2019-02-05T17:51:57.152Z,5.70
2019-02-05T17:54:28.942Z,5.80
2019-02-05T17:57:00.377Z,5.58
2019-02-05T17:59:44.308Z,5.56
2019-02-05T18:02:15.940Z,5.57
2019-02-05T18:04:48.083Z,5.46
2019-02-05T18:07:20.148Z,5.45
2019-02-05T18:09:52.010Z,5.34
2019-02-05T18:12:24.517Z,5.42
2019-02-05T18:14:57.151Z,5.22
2019-02-05T18:17:30.440Z,5.34
2019-02-05T18:20:03.664Z,5.31
2019-02-05T18:22:36.303Z,5.23
2019-02-05T18:25:09.663Z,5.28
2019-02-05T18:27:41.819Z,5.02
2019-02-05T18:30:20.918Z,5.13
2019-02-05T18:33:03.353Z,5.04
2019-02-05T18:35:28.363Z,5.12
2019-02-05T18:38:00.141Z,4.95
2019-02-05T18:40:33.338Z,5.03
2019-02-05T18:43:05.310Z,4.97
2019-02-05T18:45:38.277Z,4.93
2019-02-05T18:48:09.968Z,4.96
2019-02-05T18:50:47.821Z,5.01
2019-02-05T18:53:19.910Z,5.10
2019-02-05T18:55:51.657Z,5.02
2019-02-05T18:58:26.544Z,4.97
2019-02-05T19:00:56.803Z,4.87
2019-02-05T19:03:29.240Z,4.99
2019-02-05T19:06:01.339Z,5.39
2019-02-05T19:08:33.901Z,5.11
2019-02-05T19:11:06.133Z,5.16
2019-02-05T19:13:37.510Z,5.00
2019-02-05T19:16:09.966Z,4.96
2019-02-05T19:18:42.260Z,5.01
2019-02-05T19:21:14.534Z,4.90
2019-02-05T19:23:48.162Z,4.94
2019-02-05T19:26:29.475Z,5.03
2019-02-05T19:29:01.597Z,4.96
2019-02-05T19:31:40.371Z,4.73
2019-02-05T19:34:12.686Z,4.77
2019-02-05T19:36:44.627Z,4.58
2019-02-05T19:39:17.016Z,4.51
2019-02-05T19:41:50.247Z,4.50
2019-02-05T19:44:21.685Z,4.45
2019-02-05T19:47:03.348Z,4.32
2019-02-05T19:49:43.873Z,4.39
2019-02-05T19:52:16.271Z,4.44
2019-02-05T19:54:50.917Z,4.33
2019-02-05T19:57:23.401Z,4.15
2019-02-05T19:59:56.158Z,4.32
2019-02-05T20:02:28.252Z,4.38
2019-02-05T20:05:00.362Z,4.56
2019-02-05T20:07:36.465Z,4.38
2019-02-05T20:10:09.072Z,4.52
2019-02-05T20:12:40.594Z,4.57
2019-02-05T20:15:12.416Z,4.32
2019-02-05T20:17:44.134Z,4.48
2019-02-05T20:20:15.646Z,4.49
2019-02-05T20:22:50.361Z,4.50
2019-02-05T20:25:22.447Z,4.35
2019-02-05T20:27:59.052Z,4.22
2019-02-05T20:30:30.290Z,4.15
2019-02-05T20:33:01.965Z,4.31
2019-02-05T20:35:34.065Z,4.27
2019-02-05T20:38:06.719Z,4.28
2019-02-05T20:40:38.689Z,4.31
2019-02-05T20:43:10.843Z,4.40
2019-02-05T20:45:42.937Z,4.44
2019-02-05T20:48:14.767Z,4.53
2019-02-05T20:52:25.187Z,4.52
2019-02-05T20:54:57.253Z,4.52
2019-02-05T20:57:29.255Z,4.48
2019-02-05T21:00:01.588Z,4.47
2019-02-05T21:02:34.375Z,4.55
2019-02-05T21:05:09.339Z,4.53
2019-02-05T21:07:42.489Z,4.55
2019-02-05T21:10:17.915Z,4.64
2019-02-05T21:12:51.394Z,4.73
2019-02-05T21:15:24.961Z,4.60
2019-02-05T21:17:58.378Z,4.53
2019-02-05T21:20:32.915Z,4.56
2019-02-05T21:23:05.243Z,4.71
2019-02-05T21:25:37.895Z,4.74
2019-02-05T21:28:10.497Z,4.69
2019-02-05T21:30:42.163Z,4.74
2019-02-05T21:33:13.838Z,4.72
2019-02-05T21:35:45.811Z,4.78
2019-02-05T21:38:18.093Z,4.70
2019-02-05T21:40:50.020Z,4.46
2019-02-05T21:43:21.549Z,4.66
2019-02-05T21:45:54.010Z,4.57
2019-02-05T21:48:26.096Z,4.69
2019-02-05T21:50:57.991Z,4.78
2019-02-05T21:53:30.961Z,4.85
2019-02-05T21:56:03.303Z,4.78
2019-02-05T21:58:34.811Z,4.91
2019-02-05T22:01:07.558Z,4.77
2019-02-05T22:03:39.614Z,4.88
2019-02-05T22:06:11.679Z,4.82
2019-02-05T22:08:42.942Z,5.11
2019-02-05T22:11:14.746Z,5.12
2019-02-05T22:13:47.729Z,4.98
2019-02-05T22:16:19.866Z,4.95
2019-02-05T22:18:52.383Z,5.01
2019-02-05T22:21:24.470Z,4.96
2019-02-05T22:23:56.040Z,5.00
2019-02-05T22:26:28.479Z,5.01
2019-02-05T22:29:00.942Z,5.20
2019-02-05T22:31:32.520Z,4.95
2019-02-05T22:34:05.735Z,4.94
2019-02-05T22:36:36.929Z,4.95
2019-02-05T22:39:11.433Z,5.05
2019-02-05T22:41:43.659Z,4.89
2019-02-05T22:44:17.029Z,4.99
2019-02-05T22:46:49.307Z,4.88
2019-02-05T22:50:14.641Z,4.92
2019-02-05T22:52:46.354Z,5.00
2019-02-05T22:55:19.580Z,5.01
2019-02-05T22:57:51.703Z,5.06
2019-02-05T23:00:55.035Z,4.85
2019-02-05T23:03:36.718Z,4.93
2019-02-05T23:06:28.505Z,5.07
2019-02-05T23:09:25.956Z,5.00
2019-02-05T23:12:23.534Z,5.00
2019-02-05T23:15:13.781Z,4.97
2019-02-05T23:17:45.711Z,5.00
2019-02-05T23:20:20.164Z,5.12
2019-02-05T23:22:52.667Z,5.17
2019-02-05T23:25:23.982Z,4.94
2019-02-05T23:27:55.255Z,5.09
2019-02-05T23:30:30.811Z,5.13
2019-02-05T23:33:08.222Z,5.06
2019-02-05T23:35:40.351Z,5.06
2019-02-05T23:38:13.105Z,5.14
2019-02-05T23:40:46.257Z,4.89
2019-02-05T23:43:18.540Z,4.82
2019-02-05T23:46:00.838Z,4.94
2019-02-05T23:48:50.990Z,4.95
2019-02-05T23:51:22.267Z,4.86
2019-02-05T23:53:54.356Z,4.94
2019-02-05T23:56:26.289Z,4.64
2019-02-05T23:58:57.820Z,4.62
